sensor_id;sensor_type;location;lat;lon;timestamp;P1;durP1;ratioP1;P2;durP2;ratioP2
78614;SDS011;67937;52.488;20.952;2023-04-24T00:00:48;7.80;;;5.80;;
78614;SDS011;67937;52.488;20.952;2023-04-24T00:03:25;6.80;;;5.20;;
78614;SDS011;67937;52.488;20.952;2023-04-24T00:05:54;8.40;;;5.70;;
78614;SDS011;67937;52.488;20.952;2023-04-24T00:08:22;6.90;;;5.20;;
78614;SDS011;67937;52.488;20.952;2023-04-24T00:10:50;8.10;;;5.70;;
78614;SDS011;67937;52.488;20.952;2023-04-24T00:13:19;8.60;;;6.50;;
78614;SDS011;67937;52.488;20.952;2023-04-24T00:15:47;10.00;;;6.20;;
78614;SDS011;67937;52.488;20.952;2023-04-24T00:18:15;8.60;;;5.80;;
78614;SDS011;67937;52.488;20.952;2023-04-24T00:20:43;8.50;;;5.60;;
78614;SDS011;67937;52.488;20.952;2023-04-24T00:23:13;7.50;;;5.30;;
78614;SDS011;67937;52.488;20.952;2023-04-24T00:25:41;12.40;;;5.30;;
78614;SDS011;67937;52.488;20.952;2023-04-24T00:28:09;8.20;;;5.30;;
78614;SDS011;67937;52.488;20.952;2023-04-24T00:30:37;6.40;;;4.70;;
78614;SDS011;67937;52.488;20.952;2023-04-24T00:33:05;8.10;;;5.40;;
78614;SDS011;67937;52.488;20.952;2023-04-24T00:35:33;9.20;;;5.80;;
78614;SDS011;67937;52.488;20.952;2023-04-24T00:38:01;8.70;;;5.30;;
78614;SDS011;67937;52.488;20.952;2023-04-24T00:40:29;7.50;;;5.10;;
78614;SDS011;67937;52.488;20.952;2023-04-24T00:42:57;8.20;;;6.10;;
78614;SDS011;67937;52.488;20.952;2023-04-24T00:45:25;9.80;;;5.60;;
78614;SDS011;67937;52.488;20.952;2023-04-24T00:47:53;8.10;;;5.10;;
78614;SDS011;67937;52.488;20.952;2023-04-24T00:50:21;8.50;;;5.00;;
78614;SDS011;67937;52.488;20.952;2023-04-24T00:52:51;6.90;;;5.20;;
78614;SDS011;67937;52.488;20.952;2023-04-24T00:55:20;11.00;;;6.60;;
78614;SDS011;67937;52.488;20.952;2023-04-24T00:57:48;8.30;;;5.90;;
78614;SDS011;67937;52.488;20.952;2023-04-24T01:00:17;9.60;;;6.00;;
78614;SDS011;67937;52.488;20.952;2023-04-24T01:02:45;6.40;;;5.00;;
78614;SDS011;67937;52.488;20.952;2023-04-24T01:05:14;5.30;;;4.70;;
78614;SDS011;67937;52.488;20.952;2023-04-24T01:07:43;8.10;;;6.70;;
78614;SDS011;67937;52.488;20.952;2023-04-24T01:10:15;6.70;;;4.60;;
78614;SDS011;67937;52.488;20.952;2023-04-24T01:12:44;5.90;;;5.00;;
78614;SDS011;67937;52.488;20.952;2023-04-24T01:15:13;9.00;;;5.40;;
78614;SDS011;67937;52.488;20.952;2023-04-24T01:17:41;5.70;;;4.50;;
78614;SDS011;67937;52.488;20.952;2023-04-24T01:20:09;8.10;;;5.70;;
78614;SDS011;67937;52.488;20.952;2023-04-24T01:22:38;6.70;;;5.90;;
78614;SDS011;67937;52.488;20.952;2023-04-24T01:25:07;8.80;;;6.00;;
78614;SDS011;67937;52.488;20.952;2023-04-24T01:27:35;8.10;;;6.00;;
78614;SDS011;67937;52.488;20.952;2023-04-24T01:30:03;6.30;;;5.20;;
78614;SDS011;67937;52.488;20.952;2023-04-24T01:32:32;11.00;;;5.90;;
78614;SDS011;67937;52.488;20.952;2023-04-24T01:35:02;9.00;;;5.70;;
78614;SDS011;67937;52.488;20.952;2023-04-24T01:37:31;7.70;;;6.10;;
78614;SDS011;67937;52.488;20.952;2023-04-24T01:39:59;7.70;;;6.30;;
78614;SDS011;67937;52.488;20.952;2023-04-24T01:42:27;8.70;;;6.30;;
78614;SDS011;67937;52.488;20.952;2023-04-24T01:44:56;8.30;;;6.40;;
78614;SDS011;67937;52.488;20.952;2023-04-24T01:47:24;10.90;;;6.50;;
78614;SDS011;67937;52.488;20.952;2023-04-24T01:49:53;11.20;;;6.10;;
78614;SDS011;67937;52.488;20.952;2023-04-24T01:52:21;10.50;;;6.60;;
78614;SDS011;67937;52.488;20.952;2023-04-24T01:54:49;8.80;;;5.60;;
78614;SDS011;67937;52.488;20.952;2023-04-24T01:57:17;9.40;;;6.60;;
78614;SDS011;67937;52.488;20.952;2023-04-24T01:59:45;7.10;;;5.40;;
78614;SDS011;67937;52.488;20.952;2023-04-24T02:02:13;9.40;;;5.80;;
78614;SDS011;67937;52.488;20.952;2023-04-24T02:04:42;7.60;;;5.20;;
78614;SDS011;67937;52.488;20.952;2023-04-24T02:07:10;7.70;;;5.60;;
78614;SDS011;67937;52.488;20.952;2023-04-24T02:09:38;7.50;;;5.80;;
78614;SDS011;67937;52.488;20.952;2023-04-24T02:12:06;9.10;;;7.50;;
78614;SDS011;67937;52.488;20.952;2023-04-24T02:14:34;8.70;;;6.60;;
78614;SDS011;67937;52.488;20.952;2023-04-24T02:17:02;10.80;;;6.30;;
78614;SDS011;67937;52.488;20.952;2023-04-24T02:19:31;8.30;;;6.00;;
78614;SDS011;67937;52.488;20.952;2023-04-24T02:21:59;9.10;;;6.20;;
78614;SDS011;67937;52.488;20.952;2023-04-24T02:24:27;6.40;;;5.20;;
78614;SDS011;67937;52.488;20.952;2023-04-24T02:26:55;7.00;;;5.20;;
78614;SDS011;67937;52.488;20.952;2023-04-24T02:29:24;6.00;;;5.10;;
78614;SDS011;67937;52.488;20.952;2023-04-24T02:31:52;9.30;;;5.80;;
78614;SDS011;67937;52.488;20.952;2023-04-24T02:34:20;9.30;;;6.20;;
78614;SDS011;67937;52.488;20.952;2023-04-24T02:36:49;10.60;;;6.60;;
78614;SDS011;67937;52.488;20.952;2023-04-24T02:39:17;11.60;;;6.70;;
78614;SDS011;67937;52.488;20.952;2023-04-24T02:41:45;10.20;;;6.60;;
78614;SDS011;67937;52.488;20.952;2023-04-24T02:44:13;13.10;;;6.80;;
78614;SDS011;67937;52.488;20.952;2023-04-24T02:46:41;7.60;;;6.20;;
78614;SDS011;67937;52.488;20.952;2023-04-24T02:49:09;15.70;;;7.00;;
78614;SDS011;67937;52.488;20.952;2023-04-24T02:51:38;11.90;;;6.40;;
78614;SDS011;67937;52.488;20.952;2023-04-24T02:54:08;9.80;;;6.60;;
78614;SDS011;67937;52.488;20.952;2023-04-24T02:56:37;8.80;;;6.80;;
78614;SDS011;67937;52.488;20.952;2023-04-24T02:59:05;11.30;;;6.40;;
78614;SDS011;67937;52.488;20.952;2023-04-24T03:01:33;8.10;;;5.60;;
78614;SDS011;67937;52.488;20.952;2023-04-24T03:04:01;10.30;;;6.80;;
78614;SDS011;67937;52.488;20.952;2023-04-24T03:06:30;9.10;;;6.10;;
78614;SDS011;67937;52.488;20.952;2023-04-24T03:08:59;10.80;;;6.90;;
78614;SDS011;67937;52.488;20.952;2023-04-24T03:11:27;9.50;;;6.10;;
78614;SDS011;67937;52.488;20.952;2023-04-24T03:13:55;6.90;;;5.60;;
78614;SDS011;67937;52.488;20.952;2023-04-24T03:16:23;11.70;;;6.70;;
78614;SDS011;67937;52.488;20.952;2023-04-24T03:18:51;11.80;;;8.20;;
78614;SDS011;67937;52.488;20.952;2023-04-24T03:21:19;8.10;;;6.80;;
78614;SDS011;67937;52.488;20.952;2023-04-24T03:23:48;11.80;;;7.30;;
78614;SDS011;67937;52.488;20.952;2023-04-24T03:26:16;8.50;;;6.90;;
78614;SDS011;67937;52.488;20.952;2023-04-24T03:28:44;10.50;;;7.20;;
78614;SDS011;67937;52.488;20.952;2023-04-24T03:31:12;10.70;;;7.10;;
78614;SDS011;67937;52.488;20.952;2023-04-24T03:33:41;8.20;;;5.90;;
78614;SDS011;67937;52.488;20.952;2023-04-24T03:36:10;11.70;;;6.90;;
78614;SDS011;67937;52.488;20.952;2023-04-24T03:38:38;11.80;;;6.90;;
78614;SDS011;67937;52.488;20.952;2023-04-24T03:41:06;9.80;;;6.40;;
78614;SDS011;67937;52.488;20.952;2023-04-24T03:43:34;9.20;;;7.40;;
78614;SDS011;67937;52.488;20.952;2023-04-24T03:46:02;12.20;;;7.50;;
78614;SDS011;67937;52.488;20.952;2023-04-24T03:48:30;10.30;;;6.80;;
78614;SDS011;67937;52.488;20.952;2023-04-24T03:50:58;9.70;;;6.70;;
78614;SDS011;67937;52.488;20.952;2023-04-24T03:53:26;9.40;;;7.00;;
78614;SDS011;67937;52.488;20.952;2023-04-24T03:55:54;9.10;;;6.60;;
78614;SDS011;67937;52.488;20.952;2023-04-24T03:58:22;8.40;;;6.20;;
78614;SDS011;67937;52.488;20.952;2023-04-24T04:00:50;8.60;;;6.60;;
78614;SDS011;67937;52.488;20.952;2023-04-24T04:03:18;8.20;;;6.80;;
78614;SDS011;67937;52.488;20.952;2023-04-24T04:05:47;11.60;;;6.90;;
78614;SDS011;67937;52.488;20.952;2023-04-24T04:08:15;10.60;;;6.40;;
78614;SDS011;67937;52.488;20.952;2023-04-24T04:10:43;7.60;;;6.10;;
78614;SDS011;67937;52.488;20.952;2023-04-24T04:13:11;8.60;;;6.40;;
78614;SDS011;67937;52.488;20.952;2023-04-24T04:15:39;11.00;;;6.10;;
78614;SDS011;67937;52.488;20.952;2023-04-24T04:18:07;7.60;;;5.70;;
78614;SDS011;67937;52.488;20.952;2023-04-24T04:20:35;9.70;;;5.90;;
78614;SDS011;67937;52.488;20.952;2023-04-24T04:23:03;8.70;;;6.30;;
78614;SDS011;67937;52.488;20.952;2023-04-24T04:25:31;9.00;;;5.90;;
78614;SDS011;67937;52.488;20.952;2023-04-24T04:27:59;8.30;;;6.60;;
78614;SDS011;67937;52.488;20.952;2023-04-24T04:30:28;8.10;;;7.20;;
78614;SDS011;67937;52.488;20.952;2023-04-24T04:32:59;7.60;;;6.60;;
78614;SDS011;67937;52.488;20.952;2023-04-24T04:35:27;10.70;;;6.00;;
78614;SDS011;67937;52.488;20.952;2023-04-24T04:37:55;11.40;;;7.30;;
78614;SDS011;67937;52.488;20.952;2023-04-24T04:40:25;9.60;;;6.30;;
78614;SDS011;67937;52.488;20.952;2023-04-24T04:42:54;7.50;;;6.40;;
78614;SDS011;67937;52.488;20.952;2023-04-24T04:45:22;10.90;;;5.90;;
78614;SDS011;67937;52.488;20.952;2023-04-24T04:47:50;10.40;;;6.40;;
78614;SDS011;67937;52.488;20.952;2023-04-24T04:50:18;9.70;;;6.60;;
78614;SDS011;67937;52.488;20.952;2023-04-24T04:52:46;6.90;;;5.30;;
78614;SDS011;67937;52.488;20.952;2023-04-24T04:55:14;8.90;;;6.40;;
78614;SDS011;67937;52.488;20.952;2023-04-24T04:57:43;7.50;;;6.30;;
78614;SDS011;67937;52.488;20.952;2023-04-24T05:00:11;9.20;;;6.10;;
78614;SDS011;67937;52.488;20.952;2023-04-24T05:02:40;9.50;;;6.70;;
78614;SDS011;67937;52.488;20.952;2023-04-24T05:05:08;7.50;;;5.70;;
78614;SDS011;67937;52.488;20.952;2023-04-24T05:07:36;11.80;;;6.20;;
78614;SDS011;67937;52.488;20.952;2023-04-24T05:10:05;5.00;;;4.50;;
78614;SDS011;67937;52.488;20.952;2023-04-24T05:12:33;9.00;;;5.80;;
78614;SDS011;67937;52.488;20.952;2023-04-24T05:15:01;7.50;;;5.90;;
78614;SDS011;67937;52.488;20.952;2023-04-24T05:17:30;9.30;;;5.80;;
78614;SDS011;67937;52.488;20.952;2023-04-24T05:19:58;9.30;;;5.70;;
78614;SDS011;67937;52.488;20.952;2023-04-24T05:22:27;10.30;;;5.20;;
78614;SDS011;67937;52.488;20.952;2023-04-24T05:24:55;6.80;;;5.20;;
78614;SDS011;67937;52.488;20.952;2023-04-24T05:27:24;7.60;;;5.10;;
78614;SDS011;67937;52.488;20.952;2023-04-24T05:29:52;7.50;;;5.60;;
78614;SDS011;67937;52.488;20.952;2023-04-24T05:32:20;13.70;;;7.30;;
78614;SDS011;67937;52.488;20.952;2023-04-24T05:34:48;8.90;;;6.00;;
78614;SDS011;67937;52.488;20.952;2023-04-24T05:37:16;8.60;;;6.50;;
78614;SDS011;67937;52.488;20.952;2023-04-24T05:39:44;6.60;;;4.30;;
78614;SDS011;67937;52.488;20.952;2023-04-24T05:42:12;7.30;;;4.90;;
78614;SDS011;67937;52.488;20.952;2023-04-24T05:44:40;7.10;;;4.60;;
78614;SDS011;67937;52.488;20.952;2023-04-24T05:47:08;6.30;;;5.70;;
78614;SDS011;67937;52.488;20.952;2023-04-24T05:49:36;7.20;;;5.70;;
78614;SDS011;67937;52.488;20.952;2023-04-24T05:52:04;9.60;;;6.70;;
78614;SDS011;67937;52.488;20.952;2023-04-24T05:54:35;8.00;;;6.20;;
78614;SDS011;67937;52.488;20.952;2023-04-24T05:57:03;10.20;;;6.60;;
78614;SDS011;67937;52.488;20.952;2023-04-24T05:59:36;11.20;;;6.30;;
78614;SDS011;67937;52.488;20.952;2023-04-24T06:02:05;6.60;;;5.90;;
78614;SDS011;67937;52.488;20.952;2023-04-24T06:04:33;11.20;;;7.00;;
78614;SDS011;67937;52.488;20.952;2023-04-24T06:07:01;8.30;;;6.30;;
78614;SDS011;67937;52.488;20.952;2023-04-24T06:09:29;7.60;;;6.40;;
78614;SDS011;67937;52.488;20.952;2023-04-24T06:11:57;11.70;;;6.20;;
78614;SDS011;67937;52.488;20.952;2023-04-24T06:14:26;8.10;;;5.90;;
78614;SDS011;67937;52.488;20.952;2023-04-24T06:16:54;7.50;;;5.40;;
78614;SDS011;67937;52.488;20.952;2023-04-24T06:19:22;9.10;;;6.30;;
78614;SDS011;67937;52.488;20.952;2023-04-24T06:21:50;8.90;;;6.30;;
78614;SDS011;67937;52.488;20.952;2023-04-24T06:24:18;9.10;;;5.40;;
78614;SDS011;67937;52.488;20.952;2023-04-24T06:26:46;5.90;;;4.80;;
78614;SDS011;67937;52.488;20.952;2023-04-24T06:29:14;10.80;;;6.20;;
78614;SDS011;67937;52.488;20.952;2023-04-24T06:31:42;11.30;;;5.50;;
78614;SDS011;67937;52.488;20.952;2023-04-24T06:34:11;9.40;;;7.40;;
78614;SDS011;67937;52.488;20.952;2023-04-24T06:36:39;7.20;;;5.20;;
78614;SDS011;67937;52.488;20.952;2023-04-24T06:39:07;8.80;;;6.90;;
78614;SDS011;67937;52.488;20.952;2023-04-24T06:41:35;7.00;;;5.80;;
78614;SDS011;67937;52.488;20.952;2023-04-24T06:44:03;9.50;;;6.00;;
78614;SDS011;67937;52.488;20.952;2023-04-24T06:46:31;9.40;;;6.90;;
78614;SDS011;67937;52.488;20.952;2023-04-24T06:48:59;9.30;;;6.70;;
78614;SDS011;67937;52.488;20.952;2023-04-24T06:51:28;7.90;;;5.40;;
78614;SDS011;67937;52.488;20.952;2023-04-24T06:53:56;9.90;;;6.30;;
78614;SDS011;67937;52.488;20.952;2023-04-24T06:56:25;8.10;;;6.30;;
78614;SDS011;67937;52.488;20.952;2023-04-24T06:58:55;6.60;;;5.00;;
78614;SDS011;67937;52.488;20.952;2023-04-24T07:01:23;8.20;;;5.20;;
78614;SDS011;67937;52.488;20.952;2023-04-24T07:03:51;8.50;;;6.00;;
78614;SDS011;67937;52.488;20.952;2023-04-24T07:06:19;7.20;;;5.40;;
78614;SDS011;67937;52.488;20.952;2023-04-24T07:08:49;9.40;;;6.00;;
78614;SDS011;67937;52.488;20.952;2023-04-24T07:11:17;7.80;;;6.00;;
78614;SDS011;67937;52.488;20.952;2023-04-24T07:13:45;7.50;;;5.30;;
78614;SDS011;67937;52.488;20.952;2023-04-24T07:16:13;7.20;;;5.60;;
78614;SDS011;67937;52.488;20.952;2023-04-24T07:18:41;6.80;;;6.10;;
78614;SDS011;67937;52.488;20.952;2023-04-24T07:21:09;6.40;;;4.40;;
78614;SDS011;67937;52.488;20.952;2023-04-24T07:23:37;11.50;;;6.10;;
78614;SDS011;67937;52.488;20.952;2023-04-24T07:26:07;7.00;;;5.20;;
78614;SDS011;67937;52.488;20.952;2023-04-24T07:28:35;8.90;;;6.30;;
78614;SDS011;67937;52.488;20.952;2023-04-24T07:31:03;6.20;;;4.10;;
78614;SDS011;67937;52.488;20.952;2023-04-24T07:33:32;10.60;;;5.50;;
78614;SDS011;67937;52.488;20.952;2023-04-24T07:36:00;7.50;;;4.60;;
78614;SDS011;67937;52.488;20.952;2023-04-24T07:38:31;8.40;;;5.40;;
78614;SDS011;67937;52.488;20.952;2023-04-24T07:40:59;7.50;;;5.00;;
78614;SDS011;67937;52.488;20.952;2023-04-24T07:43:27;10.10;;;5.90;;
78614;SDS011;67937;52.488;20.952;2023-04-24T07:45:56;7.10;;;4.90;;
78614;SDS011;67937;52.488;20.952;2023-04-24T07:48:24;6.40;;;4.60;;
78614;SDS011;67937;52.488;20.952;2023-04-24T07:50:53;10.10;;;5.50;;
78614;SDS011;67937;52.488;20.952;2023-04-24T07:53:21;8.80;;;6.30;;
78614;SDS011;67937;52.488;20.952;2023-04-24T07:55:49;16.80;;;6.40;;
78614;SDS011;67937;52.488;20.952;2023-04-24T07:58:17;5.80;;;4.70;;
78614;SDS011;67937;52.488;20.952;2023-04-24T08:00:46;6.40;;;4.80;;
78614;SDS011;67937;52.488;20.952;2023-04-24T08:03:14;7.30;;;5.80;;
78614;SDS011;67937;52.488;20.952;2023-04-24T08:05:45;5.90;;;4.50;;
78614;SDS011;67937;52.488;20.952;2023-04-24T08:08:13;6.60;;;4.40;;
78614;SDS011;67937;52.488;20.952;2023-04-24T08:10:41;6.60;;;4.70;;
78614;SDS011;67937;52.488;20.952;2023-04-24T08:13:09;5.30;;;4.80;;
78614;SDS011;67937;52.488;20.952;2023-04-24T08:15:38;7.60;;;5.10;;
78614;SDS011;67937;52.488;20.952;2023-04-24T08:18:07;7.00;;;5.50;;
78614;SDS011;67937;52.488;20.952;2023-04-24T08:20:35;7.00;;;5.30;;
78614;SDS011;67937;52.488;20.952;2023-04-24T08:23:03;7.10;;;5.10;;
78614;SDS011;67937;52.488;20.952;2023-04-24T08:25:31;7.40;;;4.60;;
78614;SDS011;67937;52.488;20.952;2023-04-24T08:28:02;8.20;;;5.30;;
78614;SDS011;67937;52.488;20.952;2023-04-24T08:30:31;7.10;;;4.70;;
78614;SDS011;67937;52.488;20.952;2023-04-24T08:32:59;6.50;;;4.60;;
78614;SDS011;67937;52.488;20.952;2023-04-24T08:35:27;5.40;;;4.90;;
78614;SDS011;67937;52.488;20.952;2023-04-24T08:37:56;14.60;;;5.70;;
78614;SDS011;67937;52.488;20.952;2023-04-24T08:40:26;9.40;;;5.10;;
78614;SDS011;67937;52.488;20.952;2023-04-24T08:42:56;11.60;;;6.80;;
78614;SDS011;67937;52.488;20.952;2023-04-24T08:45:26;9.10;;;5.90;;
78614;SDS011;67937;52.488;20.952;2023-04-24T08:47:55;8.90;;;5.10;;
78614;SDS011;67937;52.488;20.952;2023-04-24T08:50:23;6.80;;;5.10;;
78614;SDS011;67937;52.488;20.952;2023-04-24T08:52:52;9.70;;;5.40;;
78614;SDS011;67937;52.488;20.952;2023-04-24T08:55:20;6.70;;;5.00;;
78614;SDS011;67937;52.488;20.952;2023-04-24T08:57:50;9.20;;;5.50;;
78614;SDS011;67937;52.488;20.952;2023-04-24T09:00:20;11.50;;;5.60;;
78614;SDS011;67937;52.488;20.952;2023-04-24T09:02:49;7.70;;;5.60;;
78614;SDS011;67937;52.488;20.952;2023-04-24T09:05:18;9.40;;;5.80;;
78614;SDS011;67937;52.488;20.952;2023-04-24T09:07:55;11.70;;;5.70;;
78614;SDS011;67937;52.488;20.952;2023-04-24T09:10:24;9.10;;;5.30;;
78614;SDS011;67937;52.488;20.952;2023-04-24T09:12:54;7.10;;;5.90;;
78614;SDS011;67937;52.488;20.952;2023-04-24T09:15:24;8.50;;;5.10;;
78614;SDS011;67937;52.488;20.952;2023-04-24T09:17:53;9.60;;;6.20;;
78614;SDS011;67937;52.488;20.952;2023-04-24T09:20:21;5.50;;;4.80;;
78614;SDS011;67937;52.488;20.952;2023-04-24T09:22:52;6.90;;;5.40;;
78614;SDS011;67937;52.488;20.952;2023-04-24T09:25:21;6.60;;;5.60;;
78614;SDS011;67937;52.488;20.952;2023-04-24T09:27:50;7.40;;;5.60;;
78614;SDS011;67937;52.488;20.952;2023-04-24T09:30:21;7.10;;;6.20;;
78614;SDS011;67937;52.488;20.952;2023-04-24T09:32:50;7.60;;;5.00;;
78614;SDS011;67937;52.488;20.952;2023-04-24T09:35:40;5.30;;;4.80;;
78614;SDS011;67937;52.488;20.952;2023-04-24T09:38:18;8.30;;;5.10;;
78614;SDS011;67937;52.488;20.952;2023-04-24T09:41:01;8.90;;;6.00;;
78614;SDS011;67937;52.488;20.952;2023-04-24T09:43:32;5.70;;;4.90;;
78614;SDS011;67937;52.488;20.952;2023-04-24T09:46:04;6.50;;;5.20;;
78614;SDS011;67937;52.488;20.952;2023-04-24T09:48:36;7.80;;;5.30;;
78614;SDS011;67937;52.488;20.952;2023-04-24T09:51:05;7.80;;;5.30;;
78614;SDS011;67937;52.488;20.952;2023-04-24T09:53:36;8.30;;;5.20;;
78614;SDS011;67937;52.488;20.952;2023-04-24T09:56:09;9.60;;;5.30;;
78614;SDS011;67937;52.488;20.952;2023-04-24T09:58:38;9.20;;;5.20;;
78614;SDS011;67937;52.488;20.952;2023-04-24T10:01:07;8.80;;;4.70;;
78614;SDS011;67937;52.488;20.952;2023-04-24T10:03:35;6.10;;;4.90;;
78614;SDS011;67937;52.488;20.952;2023-04-24T10:06:03;7.30;;;5.10;;
78614;SDS011;67937;52.488;20.952;2023-04-24T10:08:35;5.30;;;4.30;;
78614;SDS011;67937;52.488;20.952;2023-04-24T10:11:04;6.50;;;4.20;;
78614;SDS011;67937;52.488;20.952;2023-04-24T10:13:32;9.60;;;5.40;;
78614;SDS011;67937;52.488;20.952;2023-04-24T10:16:01;5.90;;;4.60;;
78614;SDS011;67937;52.488;20.952;2023-04-24T10:18:31;6.20;;;4.40;;
78614;SDS011;67937;52.488;20.952;2023-04-24T10:21:00;5.80;;;4.70;;
78614;SDS011;67937;52.488;20.952;2023-04-24T10:23:29;5.80;;;4.10;;
78614;SDS011;67937;52.488;20.952;2023-04-24T10:25:58;5.10;;;4.60;;
78614;SDS011;67937;52.488;20.952;2023-04-24T10:28:28;6.80;;;3.90;;
78614;SDS011;67937;52.488;20.952;2023-04-24T10:30:58;4.40;;;3.50;;
78614;SDS011;67937;52.488;20.952;2023-04-24T10:33:26;7.00;;;4.50;;
78614;SDS011;67937;52.488;20.952;2023-04-24T10:35:57;5.50;;;4.60;;
78614;SDS011;67937;52.488;20.952;2023-04-24T10:38:26;5.60;;;3.90;;
78614;SDS011;67937;52.488;20.952;2023-04-24T10:40:57;5.60;;;4.00;;
78614;SDS011;67937;52.488;20.952;2023-04-24T10:43:34;5.70;;;3.90;;
78614;SDS011;67937;52.488;20.952;2023-04-24T10:46:04;4.10;;;3.70;;
78614;SDS011;67937;52.488;20.952;2023-04-24T10:48:33;5.60;;;3.90;;
78614;SDS011;67937;52.488;20.952;2023-04-24T10:51:01;4.90;;;3.70;;
78614;SDS011;67937;52.488;20.952;2023-04-24T10:53:30;4.40;;;3.10;;
78614;SDS011;67937;52.488;20.952;2023-04-24T10:58:40;4.60;;;3.50;;
78614;SDS011;67937;52.488;20.952;2023-04-24T11:01:29;3.50;;;3.20;;
78614;SDS011;67937;52.488;20.952;2023-04-24T11:04:00;3.40;;;2.80;;
78614;SDS011;67937;52.488;20.952;2023-04-24T11:06:31;4.00;;;3.00;;
78614;SDS011;67937;52.488;20.952;2023-04-24T11:09:04;6.70;;;3.40;;
78614;SDS011;67937;52.488;20.952;2023-04-24T11:11:43;4.00;;;3.60;;
78614;SDS011;67937;52.488;20.952;2023-04-24T11:14:16;4.10;;;2.90;;
78614;SDS011;67937;52.488;20.952;2023-04-24T11:16:45;4.80;;;3.50;;
78614;SDS011;67937;52.488;20.952;2023-04-24T11:24:32;5.20;;;4.10;;
78614;SDS011;67937;52.488;20.952;2023-04-24T11:27:05;6.50;;;3.40;;
78614;SDS011;67937;52.488;20.952;2023-04-24T11:32:29;4.90;;;3.70;;
78614;SDS011;67937;52.488;20.952;2023-04-24T11:35:03;4.10;;;3.10;;
78614;SDS011;67937;52.488;20.952;2023-04-24T11:40:05;6.80;;;3.10;;
78614;SDS011;67937;52.488;20.952;2023-04-24T11:42:35;7.50;;;3.30;;
78614;SDS011;67937;52.488;20.952;2023-04-24T11:45:08;3.50;;;2.90;;
78614;SDS011;67937;52.488;20.952;2023-04-24T11:47:39;3.90;;;3.40;;
78614;SDS011;67937;52.488;20.952;2023-04-24T11:50:09;5.00;;;3.70;;
78614;SDS011;67937;52.488;20.952;2023-04-24T11:52:42;4.20;;;3.30;;
78614;SDS011;67937;52.488;20.952;2023-04-24T11:57:43;4.90;;;2.80;;
78614;SDS011;67937;52.488;20.952;2023-04-24T12:00:15;5.40;;;3.10;;
78614;SDS011;67937;52.488;20.952;2023-04-24T12:02:44;4.40;;;2.80;;
78614;SDS011;67937;52.488;20.952;2023-04-24T12:05:23;4.90;;;3.40;;
78614;SDS011;67937;52.488;20.952;2023-04-24T12:07:52;4.60;;;3.40;;
78614;SDS011;67937;52.488;20.952;2023-04-24T12:10:21;3.70;;;2.80;;
78614;SDS011;67937;52.488;20.952;2023-04-24T12:12:53;4.50;;;2.90;;
78614;SDS011;67937;52.488;20.952;2023-04-24T12:15:22;4.40;;;3.10;;
78614;SDS011;67937;52.488;20.952;2023-04-24T12:17:52;4.00;;;3.30;;
78614;SDS011;67937;52.488;20.952;2023-04-24T12:20:24;3.40;;;2.80;;
78614;SDS011;67937;52.488;20.952;2023-04-24T12:22:55;3.80;;;3.40;;
78614;SDS011;67937;52.488;20.952;2023-04-24T12:25:26;3.70;;;3.20;;
78614;SDS011;67937;52.488;20.952;2023-04-24T12:30:33;6.70;;;2.80;;
78614;SDS011;67937;52.488;20.952;2023-04-24T12:33:06;3.30;;;3.00;;
78614;SDS011;67937;52.488;20.952;2023-04-24T12:35:34;9.50;;;3.50;;
78614;SDS011;67937;52.488;20.952;2023-04-24T12:38:08;3.60;;;2.90;;
78614;SDS011;67937;52.488;20.952;2023-04-24T12:43:14;2.30;;;2.10;;
78614;SDS011;67937;52.488;20.952;2023-04-24T12:45:49;9.00;;;3.20;;
78614;SDS011;67937;52.488;20.952;2023-04-24T12:48:17;3.50;;;3.20;;
78614;SDS011;67937;52.488;20.952;2023-04-24T12:50:46;3.30;;;3.00;;
78614;SDS011;67937;52.488;20.952;2023-04-24T12:53:25;3.30;;;3.00;;
78614;SDS011;67937;52.488;20.952;2023-04-24T12:56:53;3.40;;;3.10;;
78614;SDS011;67937;52.488;20.952;2023-04-24T12:59:22;3.00;;;2.80;;
78614;SDS011;67937;52.488;20.952;2023-04-24T13:01:50;5.60;;;3.20;;
78614;SDS011;67937;52.488;20.952;2023-04-24T13:04:18;5.70;;;3.60;;
78614;SDS011;67937;52.488;20.952;2023-04-24T13:06:46;3.30;;;3.00;;
78614;SDS011;67937;52.488;20.952;2023-04-24T13:09:14;4.30;;;3.70;;
78614;SDS011;67937;52.488;20.952;2023-04-24T13:11:42;45.40;;;8.40;;
78614;SDS011;67937;52.488;20.952;2023-04-24T13:14:10;5.80;;;3.60;;
78614;SDS011;67937;52.488;20.952;2023-04-24T13:16:38;6.80;;;3.70;;
78614;SDS011;67937;52.488;20.952;2023-04-24T13:19:06;4.30;;;3.60;;
78614;SDS011;67937;52.488;20.952;2023-04-24T13:21:34;3.30;;;3.10;;
78614;SDS011;67937;52.488;20.952;2023-04-24T13:24:02;4.20;;;3.40;;
78614;SDS011;67937;52.488;20.952;2023-04-24T13:26:31;3.20;;;3.00;;
78614;SDS011;67937;52.488;20.952;2023-04-24T13:28:59;2.80;;;2.60;;
78614;SDS011;67937;52.488;20.952;2023-04-24T13:31:27;4.80;;;2.80;;
78614;SDS011;67937;52.488;20.952;2023-04-24T13:33:55;6.30;;;3.20;;
78614;SDS011;67937;52.488;20.952;2023-04-24T13:36:23;4.80;;;3.30;;
78614;SDS011;67937;52.488;20.952;2023-04-24T13:38:51;3.40;;;2.90;;
78614;SDS011;67937;52.488;20.952;2023-04-24T13:41:19;3.60;;;2.60;;
78614;SDS011;67937;52.488;20.952;2023-04-24T13:43:47;3.10;;;2.40;;
78614;SDS011;67937;52.488;20.952;2023-04-24T13:46:15;3.70;;;2.70;;
78614;SDS011;67937;52.488;20.952;2023-04-24T13:48:44;2.40;;;2.30;;
78614;SDS011;67937;52.488;20.952;2023-04-24T13:51:12;3.80;;;2.00;;
78614;SDS011;67937;52.488;20.952;2023-04-24T13:53:40;3.00;;;2.70;;
78614;SDS011;67937;52.488;20.952;2023-04-24T13:56:08;2.70;;;2.10;;
78614;SDS011;67937;52.488;20.952;2023-04-24T13:58:37;5.00;;;2.60;;
78614;SDS011;67937;52.488;20.952;2023-04-24T14:01:05;2.90;;;2.70;;
78614;SDS011;67937;52.488;20.952;2023-04-24T14:03:33;5.40;;;2.70;;
78614;SDS011;67937;52.488;20.952;2023-04-24T14:06:01;3.70;;;2.30;;
78614;SDS011;67937;52.488;20.952;2023-04-24T14:08:29;4.70;;;2.40;;
78614;SDS011;67937;52.488;20.952;2023-04-24T14:10:57;4.30;;;2.80;;
78614;SDS011;67937;52.488;20.952;2023-04-24T14:13:25;8.50;;;3.00;;
78614;SDS011;67937;52.488;20.952;2023-04-24T14:15:54;2.70;;;2.20;;
78614;SDS011;67937;52.488;20.952;2023-04-24T14:18:22;5.40;;;2.60;;
78614;SDS011;67937;52.488;20.952;2023-04-24T14:20:50;4.80;;;2.70;;
78614;SDS011;67937;52.488;20.952;2023-04-24T14:23:18;4.30;;;2.80;;
78614;SDS011;67937;52.488;20.952;2023-04-24T14:25:46;4.60;;;2.60;;
78614;SDS011;67937;52.488;20.952;2023-04-24T14:28:17;3.90;;;2.80;;
78614;SDS011;67937;52.488;20.952;2023-04-24T14:30:47;6.00;;;3.30;;
78614;SDS011;67937;52.488;20.952;2023-04-24T14:33:15;4.10;;;3.40;;
78614;SDS011;67937;52.488;20.952;2023-04-24T14:35:43;2.90;;;2.50;;
78614;SDS011;67937;52.488;20.952;2023-04-24T14:38:11;7.50;;;3.50;;
78614;SDS011;67937;52.488;20.952;2023-04-24T14:40:39;4.80;;;4.00;;
78614;SDS011;67937;52.488;20.952;2023-04-24T14:43:07;7.50;;;5.10;;
78614;SDS011;67937;52.488;20.952;2023-04-24T14:45:36;4.50;;;3.30;;
78614;SDS011;67937;52.488;20.952;2023-04-24T14:50:34;7.00;;;3.00;;
78614;SDS011;67937;52.488;20.952;2023-04-24T14:53:02;2.90;;;2.70;;
78614;SDS011;67937;52.488;20.952;2023-04-24T14:55:31;3.20;;;2.90;;
78614;SDS011;67937;52.488;20.952;2023-04-24T14:58:00;2.40;;;2.20;;
78614;SDS011;67937;52.488;20.952;2023-04-24T15:00:28;3.50;;;3.20;;
78614;SDS011;67937;52.488;20.952;2023-04-24T15:02:56;3.50;;;3.20;;
78614;SDS011;67937;52.488;20.952;2023-04-24T15:05:24;3.80;;;3.50;;
78614;SDS011;67937;52.488;20.952;2023-04-24T15:07:52;4.40;;;3.10;;